sensor_id;sensor_type;location;lat;lon;timestamp;pressure;altitude;pressure_sealevel;temperature;humidity
73297;BME280;61524;50.938;11.396;2023-04-09T09:29:53;100048.81;;;12.57;65.74
73297;BME280;61524;50.938;11.396;2023-04-09T09:32:18;100051.66;;;13.03;62.16
73297;BME280;61524;50.938;11.396;2023-04-09T09:35:03;100044.47;;;12.68;63.70
73297;BME280;61524;50.938;11.396;2023-04-09T09:37:29;100046.38;;;13.08;62.15
73297;BME280;61524;50.938;11.396;2023-04-09T09:39:56;100050.38;;;12.94;62.65
73297;BME280;61524;50.938;11.396;2023-04-09T09:42:21;100039.25;;;13.02;61.35
73297;BME280;61524;50.938;11.396;2023-04-09T09:44:47;100050.41;;;12.82;62.46
73297;BME280;61524;50.938;11.396;2023-04-09T09:47:14;100032.16;;;12.55;63.39
73297;BME280;61524;50.938;11.396;2023-04-09T09:49:40;100040.66;;;12.29;67.04
73297;BME280;61524;50.938;11.396;2023-04-09T09:52:08;100048.88;;;12.86;62.54
73297;BME280;61524;50.938;11.396;2023-04-09T09:54:41;100055.06;;;12.86;60.28
73297;BME280;61524;50.938;11.396;2023-04-09T09:57:09;100046.47;;;12.38;61.76
73297;BME280;61524;50.938;11.396;2023-04-09T09:59:40;100052.44;;;12.16;63.39
73297;BME280;61524;50.938;11.396;2023-04-09T10:02:12;100037.13;;;11.81;66.55
73297;BME280;61524;50.938;11.396;2023-04-09T10:04:43;100039.03;;;12.40;62.81
73297;BME280;61524;50.938;11.396;2023-04-09T10:07:08;100033.91;;;12.50;63.74
73297;BME280;61524;50.938;11.396;2023-04-09T10:09:37;100047.25;;;12.73;63.74
73297;BME280;61524;50.938;11.396;2023-04-09T10:12:06;100031.31;;;12.31;64.02
73297;BME280;61524;50.938;11.396;2023-04-09T10:14:33;100027.72;;;13.13;62.74
73297;BME280;61524;50.938;11.396;2023-04-09T10:17:00;100033.47;;;12.93;62.82
73297;BME280;61524;50.938;11.396;2023-04-09T10:19:26;100025.59;;;13.15;62.50
73297;BME280;61524;50.938;11.396;2023-04-09T10:22:00;100035.66;;;13.08;61.73
73297;BME280;61524;50.938;11.396;2023-04-09T10:24:30;100037.13;;;12.75;64.99
73297;BME280;61524;50.938;11.396;2023-04-09T10:27:09;100028.81;;;12.88;63.52
73297;BME280;61524;50.938;11.396;2023-04-09T10:29:42;100035.94;;;13.35;61.54
73297;BME280;61524;50.938;11.396;2023-04-09T10:32:08;100027.75;;;12.90;61.86
73297;BME280;61524;50.938;11.396;2023-04-09T10:34:39;100033.28;;;13.23;61.01
73297;BME280;61524;50.938;11.396;2023-04-09T10:37:13;100030.88;;;13.38;61.56
73297;BME280;61524;50.938;11.396;2023-04-09T10:39:42;100022.09;;;13.14;60.84
73297;BME280;61524;50.938;11.396;2023-04-09T10:42:13;100016.81;;;13.31;60.94
73297;BME280;61524;50.938;11.396;2023-04-09T10:44:39;100023.59;;;13.22;62.08
73297;BME280;61524;50.938;11.396;2023-04-09T10:47:09;100006.63;;;13.33;60.54
73297;BME280;61524;50.938;11.396;2023-04-09T10:49:38;100024.94;;;12.96;61.72
73297;BME280;61524;50.938;11.396;2023-04-09T10:52:04;100013.16;;;13.37;62.23
73297;BME280;61524;50.938;11.396;2023-04-09T10:59:34;100004.81;;;13.51;62.49
73297;BME280;61524;50.938;11.396;2023-04-09T11:02:00;100001.00;;;13.63;61.94
73297;BME280;61524;50.938;11.396;2023-04-09T11:07:05;99985.69;;;13.47;58.61
73297;BME280;61524;50.938;11.396;2023-04-09T11:09:34;99995.03;;;13.45;60.20
73297;BME280;61524;50.938;11.396;2023-04-09T11:12:00;99994.31;;;13.83;61.32
73297;BME280;61524;50.938;11.396;2023-04-09T11:14:27;99997.41;;;13.58;58.40
73297;BME280;61524;50.938;11.396;2023-04-09T11:16:53;99991.41;;;13.51;60.26
73297;BME280;61524;50.938;11.396;2023-04-09T11:19:21;99996.22;;;13.08;60.64
73297;BME280;61524;50.938;11.396;2023-04-09T11:21:47;100008.75;;;13.31;60.07
73297;BME280;61524;50.938;11.396;2023-04-09T11:24:13;99993.75;;;13.64;59.47
73297;BME280;61524;50.938;11.396;2023-04-09T11:26:39;99994.09;;;13.84;59.17
73297;BME280;61524;50.938;11.396;2023-04-09T11:29:08;99997.63;;;13.39;58.18
73297;BME280;61524;50.938;11.396;2023-04-09T11:31:34;99985.25;;;13.38;59.16
73297;BME280;61524;50.938;11.396;2023-04-09T11:34:00;99978.69;;;13.63;59.49
73297;BME280;61524;50.938;11.396;2023-04-09T11:36:25;99983.28;;;13.79;58.07
73297;BME280;61524;50.938;11.396;2023-04-09T11:38:54;99982.88;;;13.25;60.84
73297;BME280;61524;50.938;11.396;2023-04-09T11:41:36;99984.09;;;13.06;59.08
73297;BME280;61524;50.938;11.396;2023-04-09T11:44:05;99982.28;;;13.52;58.48
73297;BME280;61524;50.938;11.396;2023-04-09T11:46:32;99967.16;;;13.79;57.08
73297;BME280;61524;50.938;11.396;2023-04-09T11:48:58;99974.56;;;13.72;58.84
73297;BME280;61524;50.938;11.396;2023-04-09T11:51:25;99967.44;;;13.83;58.23
73297;BME280;61524;50.938;11.396;2023-04-09T11:53:52;99964.19;;;13.98;56.04
73297;BME280;61524;50.938;11.396;2023-04-09T11:56:17;99968.84;;;14.02;57.27
73297;BME280;61524;50.938;11.396;2023-04-09T11:58:47;99968.59;;;14.21;55.03
73297;BME280;61524;50.938;11.396;2023-04-09T12:01:13;99971.19;;;13.99;56.81
73297;BME280;61524;50.938;11.396;2023-04-09T12:03:39;99949.69;;;13.99;54.46
73297;BME280;61524;50.938;11.396;2023-04-09T12:06:05;99953.28;;;13.87;55.29
73297;BME280;61524;50.938;11.396;2023-04-09T12:08:35;99965.09;;;14.03;57.17
73297;BME280;61524;50.938;11.396;2023-04-09T12:11:10;99960.44;;;13.99;54.95
73297;BME280;61524;50.938;11.396;2023-04-09T12:13:36;99964.97;;;14.15;55.37
73297;BME280;61524;50.938;11.396;2023-04-09T12:16:04;99956.28;;;14.08;55.03
73297;BME280;61524;50.938;11.396;2023-04-09T12:18:29;99964.94;;;14.10;56.63
73297;BME280;61524;50.938;11.396;2023-04-09T12:20:55;99967.13;;;13.96;55.57
73297;BME280;61524;50.938;11.396;2023-04-09T12:23:20;99975.13;;;13.91;57.00
73297;BME280;61524;50.938;11.396;2023-04-09T12:25:46;99966.19;;;13.69;57.52
73297;BME280;61524;50.938;11.396;2023-04-09T12:28:13;99967.25;;;13.22;57.68
73297;BME280;61524;50.938;11.396;2023-04-09T12:30:43;99961.44;;;13.59;57.06
73297;BME280;61524;50.938;11.396;2023-04-09T12:33:08;99954.44;;;13.75;54.52
73297;BME280;61524;50.938;11.396;2023-04-09T12:35:34;99951.72;;;14.08;56.44
73297;BME280;61524;50.938;11.396;2023-04-09T12:38:02;99953.38;;;13.76;55.14
73297;BME280;61524;50.938;11.396;2023-04-09T12:40:29;99949.03;;;14.08;55.57
73297;BME280;61524;50.938;11.396;2023-04-09T12:42:55;99943.03;;;14.40;54.30
73297;BME280;61524;50.938;11.396;2023-04-09T12:45:20;99950.44;;;14.72;55.58
73297;BME280;61524;50.938;11.396;2023-04-09T12:47:46;99947.59;;;14.83;54.72
73297;BME280;61524;50.938;11.396;2023-04-09T12:50:13;99947.72;;;15.20;52.46
73297;BME280;61524;50.938;11.396;2023-04-09T12:52:40;99939.81;;;15.36;52.33
73297;BME280;61524;50.938;11.396;2023-04-09T12:55:06;99939.34;;;14.68;53.76
73297;BME280;61524;50.938;11.396;2023-04-09T12:57:32;99927.94;;;14.17;56.02
73297;BME280;61524;50.938;11.396;2023-04-09T12:59:58;99927.16;;;13.83;54.27
73297;BME280;61524;50.938;11.396;2023-04-09T13:02:24;99923.81;;;13.92;53.66
73297;BME280;61524;50.938;11.396;2023-04-09T13:04:50;99928.44;;;14.75;50.03
73297;BME280;61524;50.938;11.396;2023-04-09T13:07:16;99922.38;;;14.45;53.37
73297;BME280;61524;50.938;11.396;2023-04-09T13:09:44;99929.22;;;14.14;54.69
73297;BME280;61524;50.938;11.396;2023-04-09T13:12:10;99932.44;;;14.33;53.05
73297;BME280;61524;50.938;11.396;2023-04-09T13:14:38;99922.47;;;14.51;54.98
73297;BME280;61524;50.938;11.396;2023-04-09T13:17:04;99914.88;;;14.91;52.19
73297;BME280;61524;50.938;11.396;2023-04-09T13:19:29;99920.19;;;15.40;50.74
73297;BME280;61524;50.938;11.396;2023-04-09T13:21:55;99915.84;;;15.34;50.77
73297;BME280;61524;50.938;11.396;2023-04-09T13:24:20;99918.91;;;15.48;50.94
73297;BME280;61524;50.938;11.396;2023-04-09T13:26:46;99907.13;;;15.27;51.17
73297;BME280;61524;50.938;11.396;2023-04-09T13:29:11;99897.69;;;15.25;50.70
73297;BME280;61524;50.938;11.396;2023-04-09T13:31:37;99907.66;;;15.56;49.05
73297;BME280;61524;50.938;11.396;2023-04-09T13:34:02;99896.13;;;15.61;50.77
73297;BME280;61524;50.938;11.396;2023-04-09T13:36:28;99908.34;;;15.41;50.31
73297;BME280;61524;50.938;11.396;2023-04-09T13:38:54;99904.78;;;15.36;52.71
73297;BME280;61524;50.938;11.396;2023-04-09T13:41:20;99902.19;;;15.78;51.95
73297;BME280;61524;50.938;11.396;2023-04-09T13:43:52;99898.81;;;15.61;49.05
73297;BME280;61524;50.938;11.396;2023-04-09T13:46:17;99891.38;;;15.09;48.89
73297;BME280;61524;50.938;11.396;2023-04-09T13:48:42;99895.53;;;15.59;47.04
73297;BME280;61524;50.938;11.396;2023-04-09T13:51:08;99893.66;;;15.27;47.61
73297;BME280;61524;50.938;11.396;2023-04-09T13:53:33;99881.00;;;15.28;48.24
73297;BME280;61524;50.938;11.396;2023-04-09T13:55:59;99893.25;;;14.81;50.36
73297;BME280;61524;50.938;11.396;2023-04-09T13:58:25;99889.66;;;14.98;52.96
73297;BME280;61524;50.938;11.396;2023-04-09T14:00:50;99869.47;;;15.00;47.98
73297;BME280;61524;50.938;11.396;2023-04-09T14:03:16;99887.97;;;15.18;49.61
73297;BME280;61524;50.938;11.396;2023-04-09T14:05:42;99871.56;;;15.57;47.12
73297;BME280;61524;50.938;11.396;2023-04-09T14:08:07;99864.84;;;15.60;47.02
73297;BME280;61524;50.938;11.396;2023-04-09T14:10:33;99880.38;;;15.47;48.03
73297;BME280;61524;50.938;11.396;2023-04-09T14:12:59;99876.66;;;15.54;47.97
73297;BME280;61524;50.938;11.396;2023-04-09T14:15:26;99872.34;;;15.20;48.39
73297;BME280;61524;50.938;11.396;2023-04-09T14:17:51;99867.13;;;15.09;46.87
73297;BME280;61524;50.938;11.396;2023-04-09T14:20:17;99863.78;;;15.61;49.54
73297;BME280;61524;50.938;11.396;2023-04-09T14:22:44;99846.44;;;15.46;47.07
73297;BME280;61524;50.938;11.396;2023-04-09T14:25:13;99862.06;;;15.44;48.50
73297;BME280;61524;50.938;11.396;2023-04-09T14:27:38;99864.78;;;15.92;46.06
73297;BME280;61524;50.938;11.396;2023-04-09T14:30:04;99859.88;;;15.79;44.16
73297;BME280;61524;50.938;11.396;2023-04-09T14:32:31;99854.88;;;15.60;46.53
73297;BME280;61524;50.938;11.396;2023-04-09T14:34:57;99852.31;;;15.75;44.84
73297;BME280;61524;50.938;11.396;2023-04-09T14:37:22;99843.78;;;15.89;45.66
73297;BME280;61524;50.938;11.396;2023-04-09T14:39:48;99850.75;;;15.47;46.08
73297;BME280;61524;50.938;11.396;2023-04-09T14:42:13;99847.22;;;15.79;44.48
73297;BME280;61524;50.938;11.396;2023-04-09T14:44:39;99853.25;;;16.01;47.01
73297;BME280;61524;50.938;11.396;2023-04-09T14:47:04;99848.13;;;15.58;47.03
73297;BME280;61524;50.938;11.396;2023-04-09T14:49:30;99846.56;;;15.62;46.17
73297;BME280;61524;50.938;11.396;2023-04-09T14:51:55;99844.69;;;16.10;44.39
73297;BME280;61524;50.938;11.396;2023-04-09T14:54:21;99848.84;;;16.43;45.56
73297;BME280;61524;50.938;11.396;2023-04-09T14:56:46;99848.47;;;16.14;47.66
73297;BME280;61524;50.938;11.396;2023-04-09T14:59:12;99846.56;;;16.14;48.72
73297;BME280;61524;50.938;11.396;2023-04-09T15:01:37;99846.78;;;15.60;50.28
73297;BME280;61524;50.938;11.396;2023-04-09T15:04:03;99847.75;;;15.81;51.91
73297;BME280;61524;50.938;11.396;2023-04-09T15:06:28;99853.69;;;15.78;50.28
73297;BME280;61524;50.938;11.396;2023-04-09T15:08:55;99845.72;;;15.56;51.39
73297;BME280;61524;50.938;11.396;2023-04-09T15:11:20;99844.56;;;15.15;51.52
73297;BME280;61524;50.938;11.396;2023-04-09T15:13:47;99836.41;;;15.05;50.90
73297;BME280;61524;50.938;11.396;2023-04-09T15:16:22;99845.50;;;14.99;53.31
73297;BME280;61524;50.938;11.396;2023-04-09T15:18:48;99846.84;;;14.69;52.72
73297;BME280;61524;50.938;11.396;2023-04-09T15:21:16;99841.88;;;14.56;52.81
73297;BME280;61524;50.938;11.396;2023-04-09T15:23:42;99857.00;;;14.62;52.69
73297;BME280;61524;50.938;11.396;2023-04-09T15:26:07;99846.38;;;14.28;52.75
73297;BME280;61524;50.938;11.396;2023-04-09T15:28:32;99844.09;;;14.20;53.64
73297;BME280;61524;50.938;11.396;2023-04-09T15:30:58;99849.25;;;14.22;53.29
73297;BME280;61524;50.938;11.396;2023-04-09T15:33:23;99848.06;;;14.34;53.48
73297;BME280;61524;50.938;11.396;2023-04-09T15:35:49;99843.00;;;14.38;52.96
73297;BME280;61524;50.938;11.396;2023-04-09T15:38:14;99840.47;;;14.31;53.94
73297;BME280;61524;50.938;11.396;2023-04-09T15:40:41;99846.44;;;14.33;54.72
73297;BME280;61524;50.938;11.396;2023-04-09T15:43:06;99845.03;;;14.53;53.68
73297;BME280;61524;50.938;11.396;2023-04-09T15:45:32;99846.16;;;14.35;52.44
73297;BME280;61524;50.938;11.396;2023-04-09T15:47:57;99860.75;;;14.17;52.84
73297;BME280;61524;50.938;11.396;2023-04-09T15:50:23;99838.72;;;14.20;52.66
73297;BME280;61524;50.938;11.396;2023-04-09T15:52:48;99845.34;;;14.34;52.34
73297;BME280;61524;50.938;11.396;2023-04-09T15:55:14;99855.38;;;14.17;53.30
73297;BME280;61524;50.938;11.396;2023-04-09T15:57:40;99834.28;;;14.31;53.82
73297;BME280;61524;50.938;11.396;2023-04-09T16:00:11;99845.38;;;14.12;54.33
73297;BME280;61524;50.938;11.396;2023-04-09T16:02:36;99846.16;;;14.35;54.90
73297;BME280;61524;50.938;11.396;2023-04-09T16:05:04;99853.13;;;14.53;54.65
73297;BME280;61524;50.938;11.396;2023-04-09T16:07:29;99843.28;;;14.41;54.78
73297;BME280;61524;50.938;11.396;2023-04-09T16:09:56;99836.28;;;14.40;54.00
73297;BME280;61524;50.938;11.396;2023-04-09T16:12:21;99848.72;;;14.47;54.50
73297;BME280;61524;50.938;11.396;2023-04-09T16:14:49;99843.63;;;14.23;54.79
73297;BME280;61524;50.938;11.396;2023-04-09T16:17:15;99852.63;;;14.34;54.67
73297;BME280;61524;50.938;11.396;2023-04-09T16:19:41;99850.41;;;14.31;54.90
73297;BME280;61524;50.938;11.396;2023-04-09T16:22:06;99855.31;;;14.12;55.56
73297;BME280;61524;50.938;11.396;2023-04-09T16:24:32;99855.63;;;13.77;55.72
73297;BME280;61524;50.938;11.396;2023-04-09T16:26:58;99853.75;;;13.94;55.27
73297;BME280;61524;50.938;11.396;2023-04-09T16:29:23;99854.75;;;14.10;55.66
73297;BME280;61524;50.938;11.396;2023-04-09T16:31:49;99848.50;;;14.26;55.34
73297;BME280;61524;50.938;11.396;2023-04-09T16:34:14;99848.59;;;13.92;55.27
73297;BME280;61524;50.938;11.396;2023-04-09T16:36:40;99863.50;;;14.00;55.28
73297;BME280;61524;50.938;11.396;2023-04-09T16:39:06;99846.72;;;14.15;55.87
73297;BME280;61524;50.938;11.396;2023-04-09T16:41:31;99852.69;;;13.95;56.48
73297;BME280;61524;50.938;11.396;2023-04-09T16:43:57;99852.56;;;13.68;57.17
73297;BME280;61524;50.938;11.396;2023-04-09T16:46:22;99849.53;;;13.81;56.90
73297;BME280;61524;50.938;11.396;2023-04-09T16:48:48;99843.88;;;13.83;55.67
73297;BME280;61524;50.938;11.396;2023-04-09T16:51:13;99851.06;;;13.77;55.71
73297;BME280;61524;50.938;11.396;2023-04-09T16:53:39;99846.22;;;13.74;55.90
73297;BME280;61524;50.938;11.396;2023-04-09T16:56:05;99841.59;;;13.91;56.32
73297;BME280;61524;50.938;11.396;2023-04-09T16:58:31;99846.31;;;13.62;57.59
73297;BME280;61524;50.938;11.396;2023-04-09T17:00:57;99841.38;;;13.76;57.49
73297;BME280;61524;50.938;11.396;2023-04-09T17:03:23;99839.28;;;13.78;57.36
73297;BME280;61524;50.938;11.396;2023-04-09T17:05:49;99833.19;;;13.66;56.98
73297;BME280;61524;50.938;11.396;2023-04-09T17:08:15;99837.69;;;13.44;57.92
73297;BME280;61524;50.938;11.396;2023-04-09T17:10:42;99843.22;;;13.54;57.46
73297;BME280;61524;50.938;11.396;2023-04-09T17:13:08;99843.66;;;13.46;57.48
73297;BME280;61524;50.938;11.396;2023-04-09T17:15:33;99846.91;;;13.48;57.93
73297;BME280;61524;50.938;11.396;2023-04-09T17:17:59;99849.91;;;13.34;58.29
73297;BME280;61524;50.938;11.396;2023-04-09T17:20:24;99848.59;;;13.20;58.89
73297;BME280;61524;50.938;11.396;2023-04-09T17:22:50;99850.19;;;12.87;59.51
73297;BME280;61524;50.938;11.396;2023-04-09T17:25:16;99853.66;;;12.88;59.81
73297;BME280;61524;50.938;11.396;2023-04-09T17:27:41;99848.50;;;12.98;60.01
73297;BME280;61524;50.938;11.396;2023-04-09T17:30:09;99847.69;;;12.98;59.87
73297;BME280;61524;50.938;11.396;2023-04-09T17:32:36;99861.66;;;13.00;59.67
73297;BME280;61524;50.938;11.396;2023-04-09T17:35:04;99856.47;;;12.65;61.39
73297;BME280;61524;50.938;11.396;2023-04-09T17:37:31;99852.34;;;12.74;61.17
73297;BME280;61524;50.938;11.396;2023-04-09T17:39:56;99852.84;;;12.30;62.39
73297;BME280;61524;50.938;11.396;2023-04-09T17:42:22;99866.69;;;12.39;62.29
73297;BME280;61524;50.938;11.396;2023-04-09T17:44:48;99854.19;;;12.16;62.84
73297;BME280;61524;50.938;11.396;2023-04-09T17:47:13;99855.81;;;12.17;63.08
73297;BME280;61524;50.938;11.396;2023-04-09T17:49:38;99865.09;;;12.26;62.31
73297;BME280;61524;50.938;11.396;2023-04-09T17:52:04;99852.69;;;11.97;63.33
73297;BME280;61524;50.938;11.396;2023-04-09T17:54:33;99863.41;;;11.97;63.52
73297;BME280;61524;50.938;11.396;2023-04-09T17:57:00;99854.56;;;11.96;63.49
73297;BME280;61524;50.938;11.396;2023-04-09T17:59:26;99858.38;;;11.77;63.61
73297;BME280;61524;50.938;11.396;2023-04-09T18:01:52;99859.22;;;11.54;64.73
73297;BME280;61524;50.938;11.396;2023-04-09T18:04:19;99858.84;;;11.62;64.67
73297;BME280;61524;50.938;11.396;2023-04-09T18:06:45;99856.28;;;11.44;64.93
73297;BME280;61524;50.938;11.396;2023-04-09T18:09:10;99861.53;;;11.39;65.36
73297;BME280;61524;50.938;11.396;2023-04-09T18:11:37;99862.69;;;11.19;65.91
73297;BME280;61524;50.938;11.396;2023-04-09T18:14:03;99866.38;;;11.07;66.66
73297;BME280;61524;50.938;11.396;2023-04-09T18:16:35;99869.59;;;10.97;66.84
73297;BME280;61524;50.938;11.396;2023-04-09T18:19:07;99866.19;;;10.90;66.70
73297;BME280;61524;50.938;11.396;2023-04-09T18:21:33;99869.09;;;10.76;67.32
73297;BME280;61524;50.938;11.396;2023-04-09T18:24:02;99873.06;;;10.56;67.91
73297;BME280;61524;50.938;11.396;2023-04-09T18:26:28;99876.78;;;10.36;68.24
73297;BME280;61524;50.938;11.396;2023-04-09T18:28:53;99867.19;;;10.10;69.77
73297;BME280;61524;50.938;11.396;2023-04-09T18:31:19;99876.97;;;10.16;69.67
73297;BME280;61524;50.938;11.396;2023-04-09T18:33:44;99880.25;;;10.00;69.47
73297;BME280;61524;50.938;11.396;2023-04-09T18:36:10;99881.13;;;9.94;70.24
73297;BME280;61524;50.938;11.396;2023-04-09T18:38:36;99888.69;;;9.79;70.99
73297;BME280;61524;50.938;11.396;2023-04-09T18:41:01;99889.25;;;9.62;70.93
73297;BME280;61524;50.938;11.396;2023-04-09T18:43:28;99894.00;;;9.60;70.03
73297;BME280;61524;50.938;11.396;2023-04-09T18:45:54;99895.31;;;9.26;71.04
73297;BME280;61524;50.938;11.396;2023-04-09T18:48:20;99898.53;;;9.03;72.22
73297;BME280;61524;50.938;11.396;2023-04-09T18:50:45;99894.31;;;8.89;72.64
73297;BME280;61524;50.938;11.396;2023-04-09T18:53:11;99891.97;;;8.67;73.90
73297;BME280;61524;50.938;11.396;2023-04-09T18:55:37;99893.03;;;8.66;73.29
73297;BME280;61524;50.938;11.396;2023-04-09T18:58:03;99893.22;;;8.65;73.99
73297;BME280;61524;50.938;11.396;2023-04-09T19:00:35;99895.53;;;8.48;73.84
73297;BME280;61524;50.938;11.396;2023-04-09T19:03:01;99878.97;;;8.46;74.13
73297;BME280;61524;50.938;11.396;2023-04-09T19:05:29;99912.66;;;8.65;73.27
73297;BME280;61524;50.938;11.396;2023-04-09T19:08:02;99919.47;;;8.61;72.96
73297;BME280;61524;50.938;11.396;2023-04-09T19:10:29;99926.66;;;8.54;73.77
73297;BME280;61524;50.938;11.396;2023-04-09T19:12:56;99926.91;;;8.33;74.88
73297;BME280;61524;50.938;11.396;2023-04-09T19:15:23;99929.38;;;8.41;73.62
73297;BME280;61524;50.938;11.396;2023-04-09T19:17:52;99923.44;;;8.39;73.59
73297;BME280;61524;50.938;11.396;2023-04-09T19:20:18;99921.38;;;8.28;74.43
73297;BME280;61524;50.938;11.396;2023-04-09T19:22:51;99931.44;;;8.26;74.21
73297;BME280;61524;50.938;11.396;2023-04-09T19:25:18;99930.25;;;8.08;74.38
73297;BME280;61524;50.938;11.396;2023-04-09T19:27:44;99929.06;;;7.91;75.26
73297;BME280;61524;50.938;11.396;2023-04-09T19:30:11;99929.31;;;7.70;75.92
73297;BME280;61524;50.938;11.396;2023-04-09T19:32:37;99932.97;;;7.69;76.04
73297;BME280;61524;50.938;11.396;2023-04-09T19:35:03;99933.56;;;7.77;76.38
73297;BME280;61524;50.938;11.396;2023-04-09T19:37:29;99934.19;;;7.66;76.93
73297;BME280;61524;50.938;11.396;2023-04-09T19:39:56;99934.00;;;7.68;75.99
73297;BME280;61524;50.938;11.396;2023-04-09T19:42:21;99937.28;;;7.50;76.11
73297;BME280;61524;50.938;11.396;2023-04-09T19:44:47;99947.91;;;7.56;75.68
73297;BME280;61524;50.938;11.396;2023-04-09T19:47:13;99935.81;;;7.47;75.84
73297;BME280;61524;50.938;11.396;2023-04-09T19:49:38;99927.84;;;7.34;75.45
73297;BME280;61524;50.938;11.396;2023-04-09T19:52:04;99946.47;;;7.47;75.15
73297;BME280;61524;50.938;11.396;2023-04-09T19:54:33;99941.75;;;7.23;75.82
73297;BME280;61524;50.938;11.396;2023-04-09T19:56:59;99948.09;;;7.22;76.26
73297;BME280;61524;50.938;11.396;2023-04-09T19:59:27;99938.81;;;6.91;76.56
73297;BME280;61524;50.938;11.396;2023-04-09T20:01:53;99934.72;;;6.89;77.53
73297;BME280;61524;50.938;11.396;2023-04-09T20:04:19;99937.56;;;6.80;78.19
73297;BME280;61524;50.938;11.396;2023-04-09T20:06:44;99947.75;;;6.70;79.58
73297;BME280;61524;50.938;11.396;2023-04-09T20:09:10;99939.50;;;6.52;79.72
73297;BME280;61524;50.938;11.396;2023-04-09T20:11:38;99940.31;;;6.52;79.84
73297;BME280;61524;50.938;11.396;2023-04-09T20:14:04;99945.00;;;6.50;80.54
73297;BME280;61524;50.938;11.396;2023-04-09T20:16:30;99943.69;;;6.33;81.52
73297;BME280;61524;50.938;11.396;2023-04-09T20:18:55;99944.25;;;6.22;81.43
73297;BME280;61524;50.938;11.396;2023-04-09T20:21:21;99945.47;;;6.19;80.59
73297;BME280;61524;50.938;11.396;2023-04-09T20:23:47;99935.22;;;6.10;81.60
73297;BME280;61524;50.938;11.396;2023-04-09T20:26:12;99936.41;;;6.07;81.84
73297;BME280;61524;50.938;11.396;2023-04-09T20:28:39;99936.81;;;6.04;80.29
73297;BME280;61524;50.938;11.396;2023-04-09T20:31:05;99929.63;;;5.98;80.74
73297;BME280;61524;50.938;11.396;2023-04-09T20:33:32;99937.22;;;6.08;80.57
73297;BME280;61524;50.938;11.396;2023-04-09T20:35:57;99947.25;;;6.12;79.99
73297;BME280;61524;50.938;11.396;2023-04-09T20:38:23;99942.91;;;5.98;80.31
73297;BME280;61524;50.938;11.396;2023-04-09T20:40:49;99955.50;;;5.96;79.93
73297;BME280;61524;50.938;11.396;2023-04-09T20:43:17;99932.94;;;5.78;80.37
73297;BME280;61524;50.938;11.396;2023-04-09T20:45:42;99944.25;;;5.66;81.18
73297;BME280;61524;50.938;11.396;2023-04-09T20:48:08;99948.31;;;5.62;81.39
73297;BME280;61524;50.938;11.396;2023-04-09T20:50:33;99943.00;;;5.62;80.56
73297;BME280;61524;50.938;11.396;2023-04-09T20:52:59;99944.13;;;5.52;80.59
73297;BME280;61524;50.938;11.396;2023-04-09T20:55:25;99935.28;;;5.39;81.56
73297;BME280;61524;50.938;11.396;2023-04-09T20:57:54;99932.03;;;5.43;81.65
73297;BME280;61524;50.938;11.396;2023-04-09T21:00:21;99931.38;;;5.13;82.44
73297;BME280;61524;50.938;11.396;2023-04-09T21:02:47;99940.50;;;5.11;81.31
73297;BME280;61524;50.938;11.396;2023-04-09T21:05:12;99931.06;;;5.02;82.09
73297;BME280;61524;50.938;11.396;2023-04-09T21:07:38;99933.56;;;5.10;81.70
73297;BME280;61524;50.938;11.396;2023-04-09T21:10:04;99925.06;;;5.14;82.32
73297;BME280;61524;50.938;11.396;2023-04-09T21:12:30;99928.53;;;5.15;81.84
73297;BME280;61524;50.938;11.396;2023-04-09T21:14:57;99924.69;;;5.17;82.01
73297;BME280;61524;50.938;11.396;2023-04-09T21:17:25;99925.25;;;5.13;81.47
73297;BME280;61524;50.938;11.396;2023-04-09T21:19:51;99919.97;;;5.13;81.35
73297;BME280;61524;50.938;11.396;2023-04-09T21:22:17;99925.88;;;5.15;81.45
73297;BME280;61524;50.938;11.396;2023-04-09T21:24:42;99924.13;;;5.22;81.93
73297;BME280;61524;50.938;11.396;2023-04-09T21:27:08;99926.63;;;5.30;80.60
73297;BME280;61524;50.938;11.396;2023-04-09T21:29:33;99924.19;;;5.29;81.16
73297;BME280;61524;50.938;11.396;2023-04-09T21:31:59;99920.22;;;5.18;81.76
73297;BME280;61524;50.938;11.396;2023-04-09T21:34:25;99919.06;;;5.06;81.78
73297;BME280;61524;50.938;11.396;2023-04-09T21:36:51;99921.94;;;4.89;82.51
73297;BME280;61524;50.938;11.396;2023-04-09T21:39:16;99913.63;;;4.92;82.73
73297;BME280;61524;50.938;11.396;2023-04-09T21:41:42;99919.13;;;4.91;82.50
73297;BME280;61524;50.938;11.396;2023-04-09T21:44:07;99917.41;;;4.83;82.67
73297;BME280;61524;50.938;11.396;2023-04-09T21:46:36;99921.69;;;4.84;83.50
73297;BME280;61524;50.938;11.396;2023-04-09T21:49:02;99916.59;;;4.83;83.12
73297;BME280;61524;50.938;11.396;2023-04-09T21:51:28;99912.09;;;4.83;82.84
73297;BME280;61524;50.938;11.396;2023-04-09T21:54:09;99921.31;;;4.87;82.94
73297;BME280;61524;50.938;11.396;2023-04-09T21:56:35;99921.94;;;4.89;82.65
73297;BME280;61524;50.938;11.396;2023-04-09T21:59:01;99916.59;;;4.83;83.04
73297;BME280;61524;50.938;11.396;2023-04-09T22:01:27;99920.81;;;4.77;82.47
73297;BME280;61524;50.938;11.396;2023-04-09T22:03:55;99914.06;;;4.74;83.19
73297;BME280;61524;50.938;11.396;2023-04-09T22:06:21;99904.13;;;4.62;83.43
73297;BME280;61524;50.938;11.396;2023-04-09T22:08:46;99912.06;;;4.62;83.61
73297;BME280;61524;50.938;11.396;2023-04-09T22:11:13;99911.44;;;4.60;83.56
73297;BME280;61524;50.938;11.396;2023-04-09T22:13:38;99920.66;;;4.64;83.84
73297;BME280;61524;50.938;11.396;2023-04-09T22:16:04;99914.09;;;4.60;83.25
73297;BME280;61524;50.938;11.396;2023-04-09T22:18:30;99917.09;;;4.57;83.16
73297;BME280;61524;50.938;11.396;2023-04-09T22:20:55;99921.56;;;4.56;83.22
73297;BME280;61524;50.938;11.396;2023-04-09T22:23:21;99917.69;;;4.37;84.58
73297;BME280;61524;50.938;11.396;2023-04-09T22:25:46;99931.09;;;4.36;84.47